WZZ9SJ EPKK-HEMA
Flight info
| Callsign | WZZ9SJ |
|---|---|
| Flight time | N/A |
| Altitude | 23000 |
| Route | REGTO T195 RAZEC N133 KEKED/N0435F330 DCT BADOR DCT ADORU/N0438F350 UL606 EKI UL854 KULAR UT39 TOMBI DCT DASNI M855 KOMEZ DCT RASDA A16 CVO L315 SOBEL V730 MAK |
| Aircraft | A21N/M-SDE1E2E3FGIJ1J4RWXY/LB1 |
Departure
| Time | N/A |
|---|---|
| Airport | Kraków John Paul II International Airport (EPKK) |
Arrival
| Time | 2026-05-05 17:21 |
|---|---|
| Airport | Marsa Alam International Airport (HEMA) |
| Time | Latitude | Longitude | Altitude | Speed | Heading |
|---|---|---|---|---|---|
| 2026-05-05 16:05 | 32.64366 | 31.00059 | 35028 ft | 439 kts | 182° |
| 2026-05-05 16:05 | 32.61335 | 31.00397 | 35031 ft | 439 kts | 182° |
| 2026-05-05 16:06 | 32.55280 | 31.01070 | 35036 ft | 438 kts | 182° |
| 2026-05-05 16:06 | 32.49229 | 31.01741 | 35041 ft | 438 kts | 182° |
| 2026-05-05 16:07 | 32.43159 | 31.02412 | 35040 ft | 437 kts | 183° |
| 2026-05-05 16:07 | 32.37116 | 31.03081 | 35039 ft | 437 kts | 182° |
| 2026-05-05 16:08 | 32.31040 | 31.03753 | 35043 ft | 436 kts | 183° |
| 2026-05-05 16:08 | 32.25010 | 31.04418 | 35048 ft | 436 kts | 183° |
| 2026-05-05 16:09 | 32.18961 | 31.05084 | 35046 ft | 436 kts | 183° |
| 2026-05-05 16:09 | 32.12937 | 31.05748 | 35045 ft | 435 kts | 183° |
| 2026-05-05 16:10 | 32.06902 | 31.06412 | 35047 ft | 435 kts | 183° |
| 2026-05-05 16:10 | 32.00889 | 31.07069 | 35056 ft | 435 kts | 183° |
| 2026-05-05 16:11 | 31.94838 | 31.07717 | 35054 ft | 434 kts | 183° |
| 2026-05-05 16:12 | 31.82815 | 31.09008 | 35050 ft | 433 kts | 183° |
| 2026-05-05 16:13 | 31.67823 | 31.10618 | 35053 ft | 432 kts | 183° |
| 2026-05-05 16:13 | 31.61870 | 31.11257 | 35054 ft | 432 kts | 183° |
| 2026-05-05 16:14 | 31.49861 | 31.12772 | 35049 ft | 436 kts | 179° |
| 2026-05-05 16:15 | 31.37897 | 31.15026 | 35051 ft | 434 kts | 179° |
| 2026-05-05 16:16 | 31.25990 | 31.17260 | 35048 ft | 434 kts | 179° |
| 2026-05-05 16:17 | 31.17025 | 31.18926 | 35050 ft | 434 kts | 180° |
| 2026-05-05 16:18 | 31.08109 | 31.20584 | 35062 ft | 434 kts | 180° |
| 2026-05-05 16:19 | 30.99174 | 31.22244 | 35056 ft | 432 kts | 180° |
| 2026-05-05 16:19 | 30.90307 | 31.23888 | 35045 ft | 431 kts | 180° |
| 2026-05-05 16:20 | 30.78464 | 31.26080 | 35036 ft | 430 kts | 180° |
| 2026-05-05 16:22 | 30.63716 | 31.28804 | 35037 ft | 429 kts | 180° |
| 2026-05-05 16:23 | 30.51944 | 31.30975 | 35031 ft | 428 kts | 179° |
| 2026-05-05 16:23 | 30.48992 | 31.31518 | 35156 ft | 429 kts | 179° |
| 2026-05-05 16:23 | 30.43134 | 31.32594 | 35055 ft | 426 kts | 180° |
| 2026-05-05 16:24 | 30.37236 | 31.33673 | 35040 ft | 427 kts | 179° |
| 2026-05-05 16:25 | 30.28427 | 31.35291 | 35036 ft | 428 kts | 179° |
| 2026-05-05 16:25 | 30.19609 | 31.36909 | 35044 ft | 427 kts | 179° |
| 2026-05-05 16:26 | 30.08046 | 31.40721 | 35038 ft | 442 kts | 162° |
| 2026-05-05 16:27 | 30.02685 | 31.44314 | 35037 ft | 452 kts | 152° |
| 2026-05-05 16:27 | 29.97576 | 31.48667 | 35043 ft | 455 kts | 150° |
| 2026-05-05 16:28 | 29.92526 | 31.53020 | 35050 ft | 454 kts | 150° |
| 2026-05-05 16:28 | 29.87466 | 31.57352 | 35047 ft | 453 kts | 150° |
| 2026-05-05 16:29 | 29.82412 | 31.61658 | 35046 ft | 453 kts | 150° |
| 2026-05-05 16:29 | 29.77338 | 31.65972 | 35050 ft | 453 kts | 151° |
| 2026-05-05 16:30 | 29.72290 | 31.70256 | 35049 ft | 452 kts | 151° |
| 2026-05-05 16:30 | 29.67239 | 31.74538 | 35052 ft | 452 kts | 151° |
| 2026-05-05 16:31 | 29.62159 | 31.78839 | 35054 ft | 453 kts | 151° |
| 2026-05-05 16:31 | 29.57100 | 31.83116 | 35058 ft | 452 kts | 151° |
| 2026-05-05 16:32 | 29.52043 | 31.87385 | 35057 ft | 451 kts | 151° |
| 2026-05-05 16:32 | 29.47000 | 31.91639 | 35060 ft | 451 kts | 151° |
| 2026-05-05 16:33 | 29.41935 | 31.95905 | 35063 ft | 450 kts | 151° |
| 2026-05-05 16:33 | 29.36903 | 32.00138 | 35063 ft | 450 kts | 151° |
| 2026-05-05 16:34 | 29.31870 | 32.04365 | 35065 ft | 450 kts | 151° |
| 2026-05-05 16:34 | 29.26816 | 32.08607 | 35063 ft | 450 kts | 151° |
| 2026-05-05 16:35 | 29.21784 | 32.12823 | 35065 ft | 450 kts | 151° |
| 2026-05-05 16:35 | 29.16703 | 32.17075 | 34967 ft | 450 kts | 151° |
| 2026-05-05 16:36 | 29.11676 | 32.21279 | 35037 ft | 450 kts | 151° |
| 2026-05-05 16:36 | 29.06596 | 32.25521 | 35046 ft | 450 kts | 151° |
| 2026-05-05 16:37 | 29.01565 | 32.29716 | 35039 ft | 450 kts | 151° |
| 2026-05-05 16:37 | 28.96514 | 32.33923 | 35132 ft | 450 kts | 151° |
| 2026-05-05 16:38 | 28.91463 | 32.38126 | 35053 ft | 447 kts | 151° |
| 2026-05-05 16:38 | 28.86427 | 32.42309 | 35039 ft | 448 kts | 151° |
| 2026-05-05 16:39 | 28.81414 | 32.46471 | 35038 ft | 447 kts | 151° |
| 2026-05-05 16:39 | 28.76380 | 32.50640 | 35036 ft | 446 kts | 151° |
| 2026-05-05 16:40 | 28.71367 | 32.54789 | 35033 ft | 446 kts | 151° |
| 2026-05-05 16:40 | 28.66377 | 32.58917 | 35035 ft | 446 kts | 151° |
| 2026-05-05 16:41 | 28.61350 | 32.63067 | 35029 ft | 446 kts | 151° |
| 2026-05-05 16:41 | 28.56359 | 32.67187 | 35029 ft | 444 kts | 152° |
| 2026-05-05 16:42 | 28.51355 | 32.71308 | 35024 ft | 445 kts | 152° |
| 2026-05-05 16:42 | 28.46315 | 32.75454 | 35019 ft | 445 kts | 152° |
| 2026-05-05 16:43 | 28.41328 | 32.79554 | 35021 ft | 444 kts | 152° |
| 2026-05-05 16:43 | 28.36309 | 32.83675 | 35022 ft | 444 kts | 152° |
| 2026-05-05 16:44 | 28.31295 | 32.87783 | 35013 ft | 447 kts | 152° |
| 2026-05-05 16:44 | 28.26254 | 32.91912 | 35012 ft | 448 kts | 152° |
| 2026-05-05 16:45 | 28.21217 | 32.96037 | 35017 ft | 447 kts | 152° |
| 2026-05-05 16:45 | 28.16176 | 33.00158 | 35009 ft | 447 kts | 152° |
| 2026-05-05 16:46 | 28.11132 | 33.04277 | 35006 ft | 446 kts | 152° |
| 2026-05-05 16:46 | 28.06108 | 33.08375 | 34998 ft | 447 kts | 152° |
| 2026-05-05 16:47 | 28.01076 | 33.12472 | 34998 ft | 446 kts | 152° |
| 2026-05-05 16:47 | 27.96023 | 33.16571 | 35002 ft | 446 kts | 152° |
| 2026-05-05 16:48 | 27.90993 | 33.20650 | 34987 ft | 446 kts | 152° |
| 2026-05-05 16:48 | 27.85953 | 33.24739 | 34989 ft | 446 kts | 152° |
| 2026-05-05 16:49 | 27.80939 | 33.28804 | 34996 ft | 444 kts | 152° |
| 2026-05-05 16:49 | 27.75911 | 33.32875 | 34977 ft | 443 kts | 152° |
| 2026-05-05 16:50 | 27.70906 | 33.36923 | 34979 ft | 442 kts | 152° |
| 2026-05-05 16:50 | 27.65910 | 33.40960 | 34983 ft | 442 kts | 152° |
| 2026-05-05 16:51 | 27.60928 | 33.44980 | 34966 ft | 442 kts | 152° |
| 2026-05-05 16:51 | 27.55914 | 33.49026 | 34970 ft | 442 kts | 152° |
| 2026-05-05 16:52 | 27.50920 | 33.53045 | 34978 ft | 442 kts | 152° |
| 2026-05-05 16:52 | 27.45919 | 33.57055 | 34980 ft | 442 kts | 152° |
| 2026-05-05 16:53 | 27.40924 | 33.61060 | 34971 ft | 443 kts | 152° |
| 2026-05-05 16:53 | 27.35904 | 33.65113 | 34966 ft | 443 kts | 151° |
| 2026-05-05 16:54 | 27.30944 | 33.69206 | 34961 ft | 441 kts | 152° |
| 2026-05-05 16:54 | 27.25953 | 33.73150 | 34958 ft | 440 kts | 153° |
| 2026-05-05 16:55 | 27.20930 | 33.77117 | 34955 ft | 441 kts | 152° |
| 2026-05-05 16:55 | 27.15821 | 33.80733 | 34955 ft | 430 kts | 162° |
| 2026-05-05 16:56 | 27.10412 | 33.83649 | 34951 ft | 429 kts | 162° |
| 2026-05-05 16:56 | 27.05063 | 33.86571 | 34953 ft | 429 kts | 162° |
| 2026-05-05 16:57 | 26.99700 | 33.89549 | 34956 ft | 428 kts | 162° |
| 2026-05-05 16:57 | 26.94375 | 33.92516 | 34949 ft | 428 kts | 161° |
| 2026-05-05 16:58 | 26.89045 | 33.95490 | 34948 ft | 428 kts | 161° |
| 2026-05-05 16:58 | 26.86391 | 33.96969 | 34699 ft | 428 kts | 161° |
| 2026-05-05 16:58 | 26.83740 | 33.98449 | 34434 ft | 425 kts | 161° |
| 2026-05-05 16:59 | 26.81067 | 33.99936 | 34107 ft | 424 kts | 161° |
| 2026-05-05 16:59 | 26.78460 | 34.01387 | 33700 ft | 422 kts | 161° |
| 2026-05-05 16:59 | 26.75822 | 34.02842 | 33147 ft | 422 kts | 161° |
| 2026-05-05 16:59 | 26.73166 | 34.04269 | 32527 ft | 424 kts | 161° |
| 2026-05-05 17:00 | 26.70508 | 34.05689 | 31903 ft | 427 kts | 161° |
| 2026-05-05 17:00 | 26.67835 | 34.07116 | 31260 ft | 429 kts | 161° |
| 2026-05-05 17:00 | 26.65129 | 34.08564 | 30605 ft | 432 kts | 161° |
| 2026-05-05 17:00 | 26.62397 | 34.10028 | 29930 ft | 435 kts | 160° |
| 2026-05-05 17:01 | 26.59669 | 34.11491 | 29220 ft | 438 kts | 160° |
| 2026-05-05 17:01 | 26.56917 | 34.12967 | 28511 ft | 440 kts | 160° |
| 2026-05-05 17:01 | 26.54161 | 34.14446 | 27833 ft | 441 kts | 160° |
| 2026-05-05 17:01 | 26.51409 | 34.15926 | 27372 ft | 436 kts | 160° |
| 2026-05-05 17:02 | 26.48690 | 34.17387 | 26919 ft | 432 kts | 160° |
| 2026-05-05 17:02 | 26.45995 | 34.18835 | 26464 ft | 428 kts | 160° |
| 2026-05-05 17:02 | 26.43359 | 34.20248 | 26012 ft | 424 kts | 159° |
| 2026-05-05 17:02 | 26.40700 | 34.21670 | 25556 ft | 420 kts | 159° |
| 2026-05-05 17:03 | 26.38058 | 34.23084 | 25109 ft | 417 kts | 159° |
| 2026-05-05 17:03 | 26.35469 | 34.24468 | 24662 ft | 413 kts | 159° |
| 2026-05-05 17:03 | 26.32894 | 34.25845 | 24219 ft | 410 kts | 159° |
| 2026-05-05 17:03 | 26.30340 | 34.27209 | 23780 ft | 407 kts | 159° |
| 2026-05-05 17:04 | 26.27771 | 34.28580 | 23332 ft | 404 kts | 159° |
| 2026-05-05 17:04 | 26.25256 | 34.29924 | 22890 ft | 401 kts | 159° |
| 2026-05-05 17:04 | 26.22748 | 34.31260 | 22447 ft | 399 kts | 159° |
| 2026-05-05 17:04 | 26.20263 | 34.32587 | 22013 ft | 396 kts | 159° |
| 2026-05-05 17:05 | 26.17794 | 34.33904 | 21573 ft | 394 kts | 159° |
| 2026-05-05 17:05 | 26.15304 | 34.35229 | 21127 ft | 392 kts | 159° |
| 2026-05-05 17:05 | 26.12853 | 34.36536 | 20684 ft | 390 kts | 159° |
| 2026-05-05 17:05 | 26.10416 | 34.37835 | 20249 ft | 388 kts | 159° |
| 2026-05-05 17:06 | 26.07997 | 34.39124 | 19810 ft | 386 kts | 159° |
| 2026-05-05 17:06 | 26.05570 | 34.40415 | 19368 ft | 384 kts | 159° |
| 2026-05-05 17:06 | 26.03176 | 34.41687 | 18930 ft | 382 kts | 159° |
| 2026-05-05 17:06 | 26.00784 | 34.42955 | 18484 ft | 381 kts | 159° |
| 2026-05-05 17:07 | 25.98417 | 34.44276 | 18041 ft | 381 kts | 155° |
| 2026-05-05 17:07 | 25.96138 | 34.45743 | 17605 ft | 381 kts | 153° |
| 2026-05-05 17:07 | 25.93850 | 34.47287 | 17163 ft | 379 kts | 153° |
| 2026-05-05 17:07 | 25.91609 | 34.48809 | 16721 ft | 378 kts | 152° |
| 2026-05-05 17:08 | 25.89375 | 34.50322 | 16287 ft | 376 kts | 152° |
| 2026-05-05 17:08 | 25.87184 | 34.51917 | 15863 ft | 376 kts | 148° |
| 2026-05-05 17:08 | 25.85079 | 34.53638 | 15432 ft | 375 kts | 147° |
| 2026-05-05 17:08 | 25.83011 | 34.55367 | 14992 ft | 373 kts | 146° |
| 2026-05-05 17:09 | 25.80944 | 34.57101 | 14564 ft | 372 kts | 146° |
| 2026-05-05 17:09 | 25.78884 | 34.58831 | 14137 ft | 370 kts | 147° |
| 2026-05-05 17:09 | 25.76847 | 34.60535 | 13697 ft | 368 kts | 147° |
| 2026-05-05 17:09 | 25.74806 | 34.62242 | 13261 ft | 366 kts | 147° |
| 2026-05-05 17:10 | 25.72770 | 34.63941 | 12844 ft | 364 kts | 146° |
| 2026-05-05 17:10 | 25.70772 | 34.65608 | 12426 ft | 362 kts | 147° |
| 2026-05-05 17:10 | 25.68767 | 34.67279 | 12020 ft | 359 kts | 147° |
| 2026-05-05 17:10 | 25.66789 | 34.68929 | 11608 ft | 357 kts | 147° |
| 2026-05-05 17:11 | 25.64792 | 34.70594 | 11195 ft | 354 kts | 147° |
| 2026-05-05 17:11 | 25.62832 | 34.72226 | 10778 ft | 352 kts | 146° |
| 2026-05-05 17:11 | 25.60878 | 34.73854 | 10423 ft | 348 kts | 146° |
| 2026-05-05 17:11 | 25.58979 | 34.75440 | 10292 ft | 335 kts | 146° |
| 2026-05-05 17:12 | 25.57159 | 34.76958 | 10156 ft | 323 kts | 146° |
| 2026-05-05 17:12 | 25.55388 | 34.78435 | 10036 ft | 311 kts | 146° |
| 2026-05-05 17:12 | 25.53676 | 34.79857 | 9750 ft | 307 kts | 147° |
| 2026-05-05 17:12 | 25.51969 | 34.81273 | 9378 ft | 305 kts | 147° |
| 2026-05-05 17:13 | 25.50271 | 34.82682 | 9021 ft | 304 kts | 146° |
| 2026-05-05 17:13 | 25.48477 | 34.83861 | 8618 ft | 297 kts | 167° |
| 2026-05-05 17:13 | 25.46483 | 34.83968 | 8214 ft | 285 kts | 198° |
| 2026-05-05 17:13 | 25.44691 | 34.83124 | 7830 ft | 279 kts | 211° |
| 2026-05-05 17:14 | 25.42953 | 34.82153 | 7461 ft | 279 kts | 210° |
| 2026-05-05 17:14 | 25.41220 | 34.81219 | 7105 ft | 278 kts | 209° |
| 2026-05-05 17:14 | 25.39458 | 34.80297 | 6745 ft | 277 kts | 208° |
| 2026-05-05 17:14 | 25.37715 | 34.79399 | 6388 ft | 275 kts | 208° |
| 2026-05-05 17:15 | 25.36011 | 34.78530 | 6280 ft | 263 kts | 208° |
| 2026-05-05 17:15 | 25.34390 | 34.77706 | 6247 ft | 254 kts | 208° |
| 2026-05-05 17:15 | 25.32835 | 34.76768 | 6113 ft | 251 kts | 225° |
| 2026-05-05 17:15 | 25.31967 | 34.75195 | 5999 ft | 241 kts | 263° |
| 2026-05-05 17:16 | 25.32151 | 34.73376 | 5687 ft | 241 kts | 298° |
| 2026-05-05 17:16 | 25.33290 | 34.72092 | 5225 ft | 239 kts | 333° |
| 2026-05-05 17:16 | 25.34856 | 34.71390 | 4814 ft | 245 kts | 337° |
| 2026-05-05 17:16 | 25.36402 | 34.70636 | 4386 ft | 242 kts | 333° |
| 2026-05-05 17:17 | 25.37879 | 34.69762 | 3962 ft | 238 kts | 330° |
| 2026-05-05 17:17 | 25.39300 | 34.68856 | 3635 ft | 235 kts | 330° |
| 2026-05-05 17:17 | 25.40713 | 34.67941 | 3333 ft | 232 kts | 330° |
| 2026-05-05 17:17 | 25.42098 | 34.67048 | 3030 ft | 229 kts | 330° |
| 2026-05-05 17:18 | 25.43471 | 34.66167 | 2728 ft | 226 kts | 331° |
| 2026-05-05 17:18 | 25.44817 | 34.65306 | 2432 ft | 224 kts | 331° |
| 2026-05-05 17:18 | 25.46145 | 34.64457 | 2199 ft | 212 kts | 332° |
| 2026-05-05 17:18 | 25.47391 | 34.63660 | 1855 ft | 200 kts | 332° |
| 2026-05-05 17:19 | 25.48530 | 34.62933 | 1609 ft | 180 kts | 332° |
| 2026-05-05 17:19 | 25.49553 | 34.62278 | 1381 ft | 163 kts | 332° |
| 2026-05-05 17:19 | 25.50491 | 34.61680 | 1166 ft | 146 kts | 332° |
| 2026-05-05 17:19 | 25.51365 | 34.61122 | 1000 ft | 144 kts | 332° |
| 2026-05-05 17:20 | 25.52230 | 34.60560 | 842 ft | 143 kts | 330° |
| 2026-05-05 17:20 | 25.53086 | 34.60005 | 651 ft | 143 kts | 332° |
| 2026-05-05 17:20 | 25.53959 | 34.59478 | 427 ft | 142 kts | 331° |
| 2026-05-05 17:20 | 25.54810 | 34.58939 | 264 ft | 141 kts | 330° |
| 2026-05-05 17:21 | 25.55521 | 34.58485 | 268 ft | 77 kts | 333° |
| 2026-05-05 17:21 | 25.55745 | 34.58353 | 268 ft | 10 kts | 356° |
| 2026-05-05 17:21 | 25.55777 | 34.58330 | 268 ft | 3 kts | 210° |
| 2026-05-05 17:22 | 25.55546 | 34.58478 | 267 ft | 25 kts | 150° |
| 2026-05-05 17:22 | 25.55500 | 34.58579 | 264 ft | 16 kts | 57° |
| 2026-05-05 17:22 | 25.55560 | 34.58698 | 258 ft | 19 kts | 62° |
| 2026-05-05 17:22 | 25.55629 | 34.58832 | 251 ft | 17 kts | 61° |
| 2026-05-05 17:23 | 25.55571 | 34.58925 | 247 ft | 18 kts | 149° |
| 2026-05-05 17:23 | 25.55536 | 34.58983 | 245 ft | 9 kts | 57° |
| 2026-05-05 17:23 | 25.55565 | 34.59040 | 243 ft | 4 kts | 61° |